메인 페이지
METAR-TAF:

METAR-TAF

공항 :

차트라파티 시바지 국제공항

뭄바이, 인도

위도: 19-07N, 경도: 072-51E, 고도: 8m

현재 날씨관측

예보는 14분 전, 23:30시(UTC)에 발표되었습니다.
서북서5kt
온도 31°C
습도 79%
기압 1003 hPa
시정: 3000m
고도 2000ft 상공 구름 보통
연무

METAR: VABB 262330Z 30005KT 3000 HZ SCT020 31/27 Q1003 NOSIG

시각: 05:14 (23:44 UTC)

예보

예보는 44분 전, 23:00시(UTC)에 발표되었습니다.
예보 대상 시간: 27일 00시부터 28일 06시까지 (UTC)
서북서8kt
시정: 3000m
고도 2000ft 상공 구름 조금
고도 2500ft 상공 구름 보통
연무
전환 중
27일 03시부터 27일 05시까지 (UTC)
시정: 5000m
연무
전환 중
27일 08시부터 27일 10시까지 (UTC)
8kt, 순간 최대 풍속 18kt
전환 중
27일 13시부터 27일 15시까지 (UTC)
8kt
전환 중
27일 21시부터 27일 23시까지 (UTC)
시정: 3000m
연무
전환 중
28일 03시부터 28일 05시까지 (UTC)
시정: 5000m
연무

TAF: VABB 262300Z 2700/2806 29008KT 3000 HZ FEW020 SCT025 BECMG 2703/2705 5000 HZ BECMG 2708/2710 28008G18KT BECMG 2713/2715 28008KT BECMG 2721/2723 3000 HZ BECMG 2803/2805 5000 HZ

4,000개 이상의 공항 관측 자료 및 예보 (METAR 및 TAF 보고).

지도상에서 검색 가능한 기상관측소가 노란 점과 빨간 점으로 표시되어 있습니다.

기상관측소 명을 보려면 표시 위로 마우스를 이동하세요.

날씨 관측과 예보를 보려면 클릭하세요.

지도 변경 : 확대하려면 엑스 표시가 있는 녹색 버튼, 축소하려면 빼기 표시가 있는 녹색 버튼, 다음 페이지의 지도를 보려면 녹색 화살표를 클릭하세요.


METAR-TAF: